Albion, Oklahoma
Current Conditions -  °F | °C
As of 3:35 PM on Friday 24 Oct 2014 (Local Time) from KRKR Reporting Station
Clear Clear  
Wind Chill: 24°   Ceiling: Unl
Heat Index: 24°   Visibility: 10mi
Dew Point: 15°   Wind: 5mph
Humidity: 56%   Direction: 210°SSW
Pressure: 30.08"   Gusts: NA
Location:  34.66°N, 95.1°W
Report Text: KRKR 242035Z AUTO 21004KT 10SM CLR 24/15 A3008 RMK AO2 T02420149
Loading
Personal Weather Stations






























Interactive Weather Map
Tropical Storm Tracking
New forecast layout! Learn more

10-Day Weather Forecast

Advertisements
Track Severe Weather on mobile